Ayer, Massachusetts
Current Conditions -  °F | °C
As of 6:52 AM on Thursday 23 Oct 2014 (Local Time) from KFIT Reporting Station
Heavy Rain Heavy Rain  
Wind Chill: 43°   Ceiling: 4600
Heat Index: 48°   Visibility: 4mi
Dew Point: 45°   Wind: 10mph
Humidity: 89%   Direction: 330°NNW
Pressure: 29.75"   Gusts: NA
Location:  42.56°N, 71.58°W
Report Text: KFIT 231052Z AUTO 33009KT 4SM +RA BR OVC046 09/07 A2975 RMK AO2 SLP077 P0027 T00890072
Loading
Personal Weather Stations






























Interactive Weather Map
Tropical Storm Tracking
New forecast layout! Learn more

10-Day Weather Forecast

Advertisements
Track Severe Weather on mobile